sensor_id;sensor_type;location;lat;lon;timestamp;P1;durP1;ratioP1;P2;durP2;ratioP2
48596;SDS011;34382;43.160;24.148;2023-12-20T00:34:07;8.65;;;3.17;;
48596;SDS011;34382;43.160;24.148;2023-12-20T00:35:39;8.23;;;3.03;;
48596;SDS011;34382;43.160;24.148;2023-12-20T00:37:12;6.20;;;2.72;;
48596;SDS011;34382;43.160;24.148;2023-12-20T00:38:44;8.05;;;3.60;;
48596;SDS011;34382;43.160;24.148;2023-12-20T00:40:16;7.20;;;2.85;;
48596;SDS011;34382;43.160;24.148;2023-12-20T00:41:51;7.90;;;2.97;;
48596;SDS011;34382;43.160;24.148;2023-12-20T00:43:23;7.00;;;2.90;;
48596;SDS011;34382;43.160;24.148;2023-12-20T00:44:59;7.80;;;3.08;;
48596;SDS011;34382;43.160;24.148;2023-12-20T00:46:32;7.63;;;2.72;;
48596;SDS011;34382;43.160;24.148;2023-12-20T00:48:04;6.80;;;2.38;;
48596;SDS011;34382;43.160;24.148;2023-12-20T00:49:37;6.80;;;2.67;;
48596;SDS011;34382;43.160;24.148;2023-12-20T00:51:09;6.03;;;2.65;;
48596;SDS011;34382;43.160;24.148;2023-12-20T00:52:41;6.70;;;2.42;;
48596;SDS011;34382;43.160;24.148;2023-12-20T00:54:13;6.70;;;2.47;;
48596;SDS011;34382;43.160;24.148;2023-12-20T00:55:45;5.63;;;2.83;;
48596;SDS011;34382;43.160;24.148;2023-12-20T00:57:18;6.82;;;2.53;;
48596;SDS011;34382;43.160;24.148;2023-12-20T00:58:50;5.97;;;2.65;;
48596;SDS011;34382;43.160;24.148;2023-12-20T01:00:22;6.38;;;2.30;;
48596;SDS011;34382;43.160;24.148;2023-12-20T01:01:54;4.88;;;2.20;;
48596;SDS011;34382;43.160;24.148;2023-12-20T01:03:27;5.85;;;2.50;;
48596;SDS011;34382;43.160;24.148;2023-12-20T01:04:59;7.45;;;2.72;;
48596;SDS011;34382;43.160;24.148;2023-12-20T01:06:31;5.20;;;2.25;;
48596;SDS011;34382;43.160;24.148;2023-12-20T01:08:04;5.78;;;2.42;;
48596;SDS011;34382;43.160;24.148;2023-12-20T01:09:36;6.10;;;2.63;;
48596;SDS011;34382;43.160;24.148;2023-12-20T01:11:09;6.95;;;2.65;;
48596;SDS011;34382;43.160;24.148;2023-12-20T01:12:41;5.90;;;2.40;;
48596;SDS011;34382;43.160;24.148;2023-12-20T01:14:13;5.22;;;2.25;;
48596;SDS011;34382;43.160;24.148;2023-12-20T01:15:45;4.88;;;2.25;;
48596;SDS011;34382;43.160;24.148;2023-12-20T01:17:19;5.68;;;2.55;;
48596;SDS011;34382;43.160;24.148;2023-12-20T01:18:51;7.57;;;2.67;;
48596;SDS011;34382;43.160;24.148;2023-12-20T01:20:23;10.10;;;2.95;;
48596;SDS011;34382;43.160;24.148;2023-12-20T01:21:56;4.35;;;1.90;;
48596;SDS011;34382;43.160;24.148;2023-12-20T01:23:28;4.57;;;2.30;;
48596;SDS011;34382;43.160;24.148;2023-12-20T01:25:00;7.03;;;2.58;;
48596;SDS011;34382;43.160;24.148;2023-12-20T01:26:34;4.70;;;2.20;;
48596;SDS011;34382;43.160;24.148;2023-12-20T01:28:06;4.10;;;2.17;;
48596;SDS011;34382;43.160;24.148;2023-12-20T01:29:38;6.18;;;2.22;;
48596;SDS011;34382;43.160;24.148;2023-12-20T01:31:10;7.50;;;2.45;;
48596;SDS011;34382;43.160;24.148;2023-12-20T01:32:43;6.85;;;2.50;;
48596;SDS011;34382;43.160;24.148;2023-12-20T01:34:15;6.45;;;2.63;;
48596;SDS011;34382;43.160;24.148;2023-12-20T01:35:48;6.47;;;2.28;;
48596;SDS011;34382;43.160;24.148;2023-12-20T01:37:20;6.68;;;2.53;;
48596;SDS011;34382;43.160;24.148;2023-12-20T01:38:52;5.82;;;2.30;;
48596;SDS011;34382;43.160;24.148;2023-12-20T01:40:24;7.07;;;2.50;;
48596;SDS011;34382;43.160;24.148;2023-12-20T01:41:59;6.28;;;2.50;;
48596;SDS011;34382;43.160;24.148;2023-12-20T01:43:31;5.72;;;2.20;;
48596;SDS011;34382;43.160;24.148;2023-12-20T01:45:18;5.03;;;2.38;;
48596;SDS011;34382;43.160;24.148;2023-12-20T01:46:50;6.70;;;2.60;;
48596;SDS011;34382;43.160;24.148;2023-12-20T01:48:22;8.18;;;3.30;;
48596;SDS011;34382;43.160;24.148;2023-12-20T01:49:55;9.02;;;3.45;;
48596;SDS011;34382;43.160;24.148;2023-12-20T01:53:01;6.00;;;2.60;;
48596;SDS011;34382;43.160;24.148;2023-12-20T01:54:34;5.00;;;1.95;;
48596;SDS011;34382;43.160;24.148;2023-12-20T01:56:07;4.35;;;2.03;;
48596;SDS011;34382;43.160;24.148;2023-12-20T01:57:43;4.03;;;1.92;;
48596;SDS011;34382;43.160;24.148;2023-12-20T01:59:16;5.25;;;2.00;;
48596;SDS011;34382;43.160;24.148;2023-12-20T02:00:50;4.95;;;1.80;;
48596;SDS011;34382;43.160;24.148;2023-12-20T02:02:22;5.50;;;2.17;;
48596;SDS011;34382;43.160;24.148;2023-12-20T02:03:55;6.07;;;2.65;;
48596;SDS011;34382;43.160;24.148;2023-12-20T02:05:31;5.43;;;1.85;;
48596;SDS011;34382;43.160;24.148;2023-12-20T02:07:04;5.28;;;2.20;;
48596;SDS011;34382;43.160;24.148;2023-12-20T02:08:37;4.72;;;2.05;;
48596;SDS011;34382;43.160;24.148;2023-12-20T02:10:09;5.53;;;1.98;;
48596;SDS011;34382;43.160;24.148;2023-12-20T02:11:41;5.78;;;2.25;;
48596;SDS011;34382;43.160;24.148;2023-12-20T02:13:13;6.43;;;2.30;;
48596;SDS011;34382;43.160;24.148;2023-12-20T02:14:46;8.45;;;2.28;;
48596;SDS011;34382;43.160;24.148;2023-12-20T02:16:18;5.13;;;2.30;;
48596;SDS011;34382;43.160;24.148;2023-12-20T02:17:50;5.55;;;2.28;;
48596;SDS011;34382;43.160;24.148;2023-12-20T02:19:23;6.53;;;2.55;;
48596;SDS011;34382;43.160;24.148;2023-12-20T02:20:55;6.85;;;3.22;;
48596;SDS011;34382;43.160;24.148;2023-12-20T02:22:28;7.03;;;3.08;;
48596;SDS011;34382;43.160;24.148;2023-12-20T02:24:00;7.55;;;2.83;;
48596;SDS011;34382;43.160;24.148;2023-12-20T02:25:32;5.60;;;2.30;;
48596;SDS011;34382;43.160;24.148;2023-12-20T02:27:07;5.93;;;3.03;;
48596;SDS011;34382;43.160;24.148;2023-12-20T02:28:40;4.63;;;2.13;;
48596;SDS011;34382;43.160;24.148;2023-12-20T02:30:12;5.90;;;2.38;;
48596;SDS011;34382;43.160;24.148;2023-12-20T02:31:44;6.07;;;2.40;;
48596;SDS011;34382;43.160;24.148;2023-12-20T02:33:17;5.25;;;1.90;;
48596;SDS011;34382;43.160;24.148;2023-12-20T02:34:49;7.97;;;2.17;;
48596;SDS011;34382;43.160;24.148;2023-12-20T02:36:21;5.20;;;2.17;;
48596;SDS011;34382;43.160;24.148;2023-12-20T02:37:54;5.57;;;2.15;;
48596;SDS011;34382;43.160;24.148;2023-12-20T02:39:26;5.20;;;2.15;;
48596;SDS011;34382;43.160;24.148;2023-12-20T03:25:26;6.95;;;2.40;;
48596;SDS011;34382;43.160;24.148;2023-12-20T03:26:59;7.75;;;2.50;;
48596;SDS011;34382;43.160;24.148;2023-12-20T03:28:31;5.43;;;2.55;;
48596;SDS011;34382;43.160;24.148;2023-12-20T03:30:03;5.60;;;2.30;;
48596;SDS011;34382;43.160;24.148;2023-12-20T03:31:36;5.35;;;2.20;;
48596;SDS011;34382;43.160;24.148;2023-12-20T03:33:09;6.80;;;2.58;;
48596;SDS011;34382;43.160;24.148;2023-12-20T03:34:41;6.30;;;2.25;;
48596;SDS011;34382;43.160;24.148;2023-12-20T03:36:13;6.32;;;1.90;;
48596;SDS011;34382;43.160;24.148;2023-12-20T03:39:22;5.65;;;2.20;;
48596;SDS011;34382;43.160;24.148;2023-12-20T03:40:55;5.00;;;1.80;;
48596;SDS011;34382;43.160;24.148;2023-12-20T03:42:27;3.47;;;1.67;;
48596;SDS011;34382;43.160;24.148;2023-12-20T03:44:00;5.27;;;2.07;;
48596;SDS011;34382;43.160;24.148;2023-12-20T03:45:32;5.05;;;2.30;;
48596;SDS011;34382;43.160;24.148;2023-12-20T03:47:04;4.90;;;2.17;;
48596;SDS011;34382;43.160;24.148;2023-12-20T03:48:36;2.75;;;1.63;;
48596;SDS011;34382;43.160;24.148;2023-12-20T03:50:08;6.18;;;2.00;;
48596;SDS011;34382;43.160;24.148;2023-12-20T03:51:41;5.68;;;2.42;;
48596;SDS011;34382;43.160;24.148;2023-12-20T03:53:14;7.00;;;3.80;;
48596;SDS011;34382;43.160;24.148;2023-12-20T03:54:46;6.10;;;2.40;;
48596;SDS011;34382;43.160;24.148;2023-12-20T03:56:19;7.85;;;3.78;;
48596;SDS011;34382;43.160;24.148;2023-12-20T03:57:51;8.38;;;4.05;;
48596;SDS011;34382;43.160;24.148;2023-12-20T03:59:23;7.10;;;2.72;;
48596;SDS011;34382;43.160;24.148;2023-12-20T04:00:56;8.23;;;3.10;;
48596;SDS011;34382;43.160;24.148;2023-12-20T04:02:29;6.50;;;2.75;;
48596;SDS011;34382;43.160;24.148;2023-12-20T04:04:01;8.43;;;3.58;;
48596;SDS011;34382;43.160;24.148;2023-12-20T04:05:33;8.50;;;3.08;;
48596;SDS011;34382;43.160;24.148;2023-12-20T04:07:05;12.30;;;5.22;;
48596;SDS011;34382;43.160;24.148;2023-12-20T04:08:38;11.18;;;4.78;;
48596;SDS011;34382;43.160;24.148;2023-12-20T04:10:10;7.72;;;2.63;;
48596;SDS011;34382;43.160;24.148;2023-12-20T04:11:42;8.13;;;3.10;;
48596;SDS011;34382;43.160;24.148;2023-12-20T04:13:14;10.52;;;4.18;;
48596;SDS011;34382;43.160;24.148;2023-12-20T04:14:46;20.50;;;9.27;;
48596;SDS011;34382;43.160;24.148;2023-12-20T04:16:19;21.98;;;10.35;;
48596;SDS011;34382;43.160;24.148;2023-12-20T04:17:51;10.73;;;3.88;;
48596;SDS011;34382;43.160;24.148;2023-12-20T04:19:23;16.48;;;5.70;;
48596;SDS011;34382;43.160;24.148;2023-12-20T04:20:56;22.63;;;10.15;;
48596;SDS011;34382;43.160;24.148;2023-12-20T04:22:28;26.67;;;12.30;;
48596;SDS011;34382;43.160;24.148;2023-12-20T04:24:00;28.02;;;15.50;;
48596;SDS011;34382;43.160;24.148;2023-12-20T04:25:32;28.58;;;14.73;;
48596;SDS011;34382;43.160;24.148;2023-12-20T04:44:29;12.63;;;6.03;;
48596;SDS011;34382;43.160;24.148;2023-12-20T05:00:29;12.30;;;4.68;;
48596;SDS011;34382;43.160;24.148;2023-12-20T05:02:02;7.47;;;3.00;;
48596;SDS011;34382;43.160;24.148;2023-12-20T05:03:34;6.28;;;2.53;;
48596;SDS011;34382;43.160;24.148;2023-12-20T05:05:07;9.93;;;5.07;;
48596;SDS011;34382;43.160;24.148;2023-12-20T05:06:42;10.10;;;4.13;;
48596;SDS011;34382;43.160;24.148;2023-12-20T05:08:15;9.93;;;3.63;;
48596;SDS011;34382;43.160;24.148;2023-12-20T05:09:47;6.78;;;2.45;;
48596;SDS011;34382;43.160;24.148;2023-12-20T05:11:20;6.10;;;2.45;;
48596;SDS011;34382;43.160;24.148;2023-12-20T05:12:52;7.03;;;2.83;;
48596;SDS011;34382;43.160;24.148;2023-12-20T05:14:24;9.48;;;5.43;;
48596;SDS011;34382;43.160;24.148;2023-12-20T05:15:57;7.63;;;3.45;;
48596;SDS011;34382;43.160;24.148;2023-12-20T05:19:02;8.18;;;3.20;;
48596;SDS011;34382;43.160;24.148;2023-12-20T05:20:38;8.02;;;3.40;;
48596;SDS011;34382;43.160;24.148;2023-12-20T05:22:11;6.65;;;2.83;;
48596;SDS011;34382;43.160;24.148;2023-12-20T05:23:43;4.60;;;2.10;;
48596;SDS011;34382;43.160;24.148;2023-12-20T05:25:16;5.32;;;2.20;;
48596;SDS011;34382;43.160;24.148;2023-12-20T05:26:48;5.18;;;2.17;;
48596;SDS011;34382;43.160;24.148;2023-12-20T05:28:24;5.15;;;2.20;;
48596;SDS011;34382;43.160;24.148;2023-12-20T05:29:56;4.53;;;2.00;;
48596;SDS011;34382;43.160;24.148;2023-12-20T05:31:29;6.03;;;2.13;;
48596;SDS011;34382;43.160;24.148;2023-12-20T05:33:01;5.00;;;2.00;;
48596;SDS011;34382;43.160;24.148;2023-12-20T05:34:34;29.17;;;16.30;;
48596;SDS011;34382;43.160;24.148;2023-12-20T05:36:06;17.95;;;9.68;;
48596;SDS011;34382;43.160;24.148;2023-12-20T05:37:43;13.05;;;7.03;;
48596;SDS011;34382;43.160;24.148;2023-12-20T05:39:16;6.70;;;2.75;;
48596;SDS011;34382;43.160;24.148;2023-12-20T05:40:48;8.88;;;4.45;;
48596;SDS011;34382;43.160;24.148;2023-12-20T05:42:20;5.18;;;2.22;;
48596;SDS011;34382;43.160;24.148;2023-12-20T05:43:53;4.95;;;1.92;;
48596;SDS011;34382;43.160;24.148;2023-12-20T05:45:25;3.63;;;1.75;;
48596;SDS011;34382;43.160;24.148;2023-12-20T05:46:57;5.95;;;2.28;;
48596;SDS011;34382;43.160;24.148;2023-12-20T05:48:29;9.20;;;2.20;;
48596;SDS011;34382;43.160;24.148;2023-12-20T05:50:02;3.55;;;1.80;;
48596;SDS011;34382;43.160;24.148;2023-12-20T05:51:34;4.50;;;1.77;;
48596;SDS011;34382;43.160;24.148;2023-12-20T05:53:06;5.80;;;2.00;;
48596;SDS011;34382;43.160;24.148;2023-12-20T05:54:39;4.25;;;1.88;;
48596;SDS011;34382;43.160;24.148;2023-12-20T05:56:11;4.95;;;1.85;;
48596;SDS011;34382;43.160;24.148;2023-12-20T05:57:44;4.75;;;2.08;;
48596;SDS011;34382;43.160;24.148;2023-12-20T05:59:16;5.45;;;1.98;;
48596;SDS011;34382;43.160;24.148;2023-12-20T06:00:49;7.47;;;3.65;;
48596;SDS011;34382;43.160;24.148;2023-12-20T06:02:21;5.80;;;1.88;;
48596;SDS011;34382;43.160;24.148;2023-12-20T06:03:54;7.15;;;2.25;;
48596;SDS011;34382;43.160;24.148;2023-12-20T06:05:26;5.18;;;2.13;;
48596;SDS011;34382;43.160;24.148;2023-12-20T06:06:58;5.65;;;2.15;;
48596;SDS011;34382;43.160;24.148;2023-12-20T06:08:31;8.33;;;3.53;;
48596;SDS011;34382;43.160;24.148;2023-12-20T06:10:03;7.03;;;3.58;;
48596;SDS011;34382;43.160;24.148;2023-12-20T06:11:38;9.95;;;4.07;;
48596;SDS011;34382;43.160;24.148;2023-12-20T06:13:12;8.27;;;4.53;;
48596;SDS011;34382;43.160;24.148;2023-12-20T06:14:45;5.00;;;2.28;;
48596;SDS011;34382;43.160;24.148;2023-12-20T06:16:18;3.47;;;1.77;;
48596;SDS011;34382;43.160;24.148;2023-12-20T06:17:50;4.88;;;2.33;;
48596;SDS011;34382;43.160;24.148;2023-12-20T06:19:23;3.15;;;1.52;;
48596;SDS011;34382;43.160;24.148;2023-12-20T06:20:55;5.55;;;2.00;;
48596;SDS011;34382;43.160;24.148;2023-12-20T06:22:27;5.72;;;2.17;;
48596;SDS011;34382;43.160;24.148;2023-12-20T06:23:59;4.72;;;2.05;;
48596;SDS011;34382;43.160;24.148;2023-12-20T06:25:31;4.25;;;2.15;;
48596;SDS011;34382;43.160;24.148;2023-12-20T06:27:04;5.13;;;1.80;;
48596;SDS011;34382;43.160;24.148;2023-12-20T06:28:36;4.55;;;1.88;;
48596;SDS011;34382;43.160;24.148;2023-12-20T06:30:14;6.13;;;2.13;;
48596;SDS011;34382;43.160;24.148;2023-12-20T06:31:47;7.40;;;2.30;;
48596;SDS011;34382;43.160;24.148;2023-12-20T06:33:19;5.93;;;2.10;;
48596;SDS011;34382;43.160;24.148;2023-12-20T06:34:53;7.40;;;3.03;;
48596;SDS011;34382;43.160;24.148;2023-12-20T06:36:26;8.60;;;2.95;;
48596;SDS011;34382;43.160;24.148;2023-12-20T06:37:58;8.98;;;2.85;;
48596;SDS011;34382;43.160;24.148;2023-12-20T06:39:30;8.25;;;3.10;;
48596;SDS011;34382;43.160;24.148;2023-12-20T06:41:03;6.87;;;3.07;;
48596;SDS011;34382;43.160;24.148;2023-12-20T06:42:35;7.55;;;2.88;;
48596;SDS011;34382;43.160;24.148;2023-12-20T06:44:21;7.53;;;2.45;;
48596;SDS011;34382;43.160;24.148;2023-12-20T06:45:53;6.90;;;2.53;;
48596;SDS011;34382;43.160;24.148;2023-12-20T06:47:28;9.18;;;3.70;;
48596;SDS011;34382;43.160;24.148;2023-12-20T06:49:00;10.93;;;4.18;;
48596;SDS011;34382;43.160;24.148;2023-12-20T06:50:32;7.80;;;3.58;;
48596;SDS011;34382;43.160;24.148;2023-12-20T06:52:05;8.13;;;3.30;;
48596;SDS011;34382;43.160;24.148;2023-12-20T06:53:37;6.72;;;3.10;;
48596;SDS011;34382;43.160;24.148;2023-12-20T06:55:10;5.78;;;1.90;;
48596;SDS011;34382;43.160;24.148;2023-12-20T06:56:42;3.40;;;1.90;;
48596;SDS011;34382;43.160;24.148;2023-12-20T06:58:15;6.10;;;2.20;;
48596;SDS011;34382;43.160;24.148;2023-12-20T06:59:47;10.73;;;2.80;;
48596;SDS011;34382;43.160;24.148;2023-12-20T07:01:19;5.38;;;2.08;;
48596;SDS011;34382;43.160;24.148;2023-12-20T07:02:52;5.63;;;2.20;;
48596;SDS011;34382;43.160;24.148;2023-12-20T07:04:24;7.85;;;2.55;;
48596;SDS011;34382;43.160;24.148;2023-12-20T07:05:57;6.90;;;2.63;;
48596;SDS011;34382;43.160;24.148;2023-12-20T07:07:30;9.00;;;3.30;;
48596;SDS011;34382;43.160;24.148;2023-12-20T07:09:02;7.72;;;3.05;;
48596;SDS011;34382;43.160;24.148;2023-12-20T07:10:35;10.18;;;3.80;;
48596;SDS011;34382;43.160;24.148;2023-12-20T07:12:07;8.93;;;3.92;;
48596;SDS011;34382;43.160;24.148;2023-12-20T07:13:39;9.40;;;4.15;;
48596;SDS011;34382;43.160;24.148;2023-12-20T07:15:12;10.27;;;4.25;;
48596;SDS011;34382;43.160;24.148;2023-12-20T07:16:44;8.60;;;3.72;;
48596;SDS011;34382;43.160;24.148;2023-12-20T07:18:17;8.75;;;3.63;;
48596;SDS011;34382;43.160;24.148;2023-12-20T07:19:49;9.85;;;3.38;;
48596;SDS011;34382;43.160;24.148;2023-12-20T07:21:21;6.88;;;3.22;;
48596;SDS011;34382;43.160;24.148;2023-12-20T07:22:54;8.10;;;3.53;;
48596;SDS011;34382;43.160;24.148;2023-12-20T07:24:26;7.03;;;3.40;;
48596;SDS011;34382;43.160;24.148;2023-12-20T07:25:59;6.35;;;2.90;;
48596;SDS011;34382;43.160;24.148;2023-12-20T07:27:31;7.30;;;2.70;;
48596;SDS011;34382;43.160;24.148;2023-12-20T07:29:03;8.65;;;3.67;;
48596;SDS011;34382;43.160;24.148;2023-12-20T07:30:36;9.55;;;4.35;;
48596;SDS011;34382;43.160;24.148;2023-12-20T07:32:08;6.57;;;3.10;;
48596;SDS011;34382;43.160;24.148;2023-12-20T07:33:40;9.80;;;4.07;;
48596;SDS011;34382;43.160;24.148;2023-12-20T07:35:13;9.05;;;3.55;;
48596;SDS011;34382;43.160;24.148;2023-12-20T07:36:46;6.72;;;2.80;;
48596;SDS011;34382;43.160;24.148;2023-12-20T07:38:19;9.27;;;3.45;;
48596;SDS011;34382;43.160;24.148;2023-12-20T07:39:51;8.37;;;4.07;;
48596;SDS011;34382;43.160;24.148;2023-12-20T07:41:24;13.95;;;7.18;;
48596;SDS011;34382;43.160;24.148;2023-12-20T07:42:58;14.75;;;6.75;;
48596;SDS011;34382;43.160;24.148;2023-12-20T07:44:31;12.65;;;5.22;;
48596;SDS011;34382;43.160;24.148;2023-12-20T07:46:06;9.70;;;5.25;;
48596;SDS011;34382;43.160;24.148;2023-12-20T07:47:39;11.30;;;5.13;;
48596;SDS011;34382;43.160;24.148;2023-12-20T07:49:12;12.48;;;5.53;;
48596;SDS011;34382;43.160;24.148;2023-12-20T07:50:45;10.15;;;5.95;;
48596;SDS011;34382;43.160;24.148;2023-12-20T07:52:17;11.23;;;5.57;;
48596;SDS011;34382;43.160;24.148;2023-12-20T07:53:51;11.93;;;5.75;;
48596;SDS011;34382;43.160;24.148;2023-12-20T07:55:23;9.98;;;5.32;;
48596;SDS011;34382;43.160;24.148;2023-12-20T07:56:56;9.05;;;4.18;;
48596;SDS011;34382;43.160;24.148;2023-12-20T07:58:29;7.97;;;3.85;;
48596;SDS011;34382;43.160;24.148;2023-12-20T08:00:21;8.13;;;2.78;;
48596;SDS011;34382;43.160;24.148;2023-12-20T08:01:54;7.43;;;3.08;;
48596;SDS011;34382;43.160;24.148;2023-12-20T08:03:26;12.52;;;5.63;;
48596;SDS011;34382;43.160;24.148;2023-12-20T08:04:59;11.73;;;4.63;;
48596;SDS011;34382;43.160;24.148;2023-12-20T08:08:19;8.18;;;3.75;;
48596;SDS011;34382;43.160;24.148;2023-12-20T08:09:51;10.18;;;3.60;;
48596;SDS011;34382;43.160;24.148;2023-12-20T08:11:24;9.95;;;4.85;;
48596;SDS011;34382;43.160;24.148;2023-12-20T08:12:57;11.38;;;6.93;;
48596;SDS011;34382;43.160;24.148;2023-12-20T08:14:29;11.20;;;6.00;;
48596;SDS011;34382;43.160;24.148;2023-12-20T08:16:02;10.65;;;5.68;;
48596;SDS011;34382;43.160;24.148;2023-12-20T08:17:36;10.38;;;5.63;;
48596;SDS011;34382;43.160;24.148;2023-12-20T08:19:09;15.05;;;8.00;;
48596;SDS011;34382;43.160;24.148;2023-12-20T08:20:42;15.37;;;8.57;;
48596;SDS011;34382;43.160;24.148;2023-12-20T08:22:17;16.05;;;10.02;;
48596;SDS011;34382;43.160;24.148;2023-12-20T08:23:49;18.42;;;11.32;;
48596;SDS011;34382;43.160;24.148;2023-12-20T08:25:22;18.50;;;11.50;;
48596;SDS011;34382;43.160;24.148;2023-12-20T08:26:54;21.63;;;12.10;;
48596;SDS011;34382;43.160;24.148;2023-12-20T08:28:26;15.32;;;8.90;;
48596;SDS011;34382;43.160;24.148;2023-12-20T08:29:59;17.98;;;8.93;;
48596;SDS011;34382;43.160;24.148;2023-12-20T08:31:31;12.25;;;7.70;;
48596;SDS011;34382;43.160;24.148;2023-12-20T08:33:03;13.77;;;7.40;;
48596;SDS011;34382;43.160;24.148;2023-12-20T08:34:36;12.75;;;7.20;;
48596;SDS011;34382;43.160;24.148;2023-12-20T08:36:09;12.82;;;6.47;;
48596;SDS011;34382;43.160;24.148;2023-12-20T08:37:41;12.35;;;5.75;;
48596;SDS011;34382;43.160;24.148;2023-12-20T08:39:14;10.93;;;5.33;;
48596;SDS011;34382;43.160;24.148;2023-12-20T08:40:46;13.25;;;6.45;;
48596;SDS011;34382;43.160;24.148;2023-12-20T08:43:52;11.98;;;5.90;;
48596;SDS011;34382;43.160;24.148;2023-12-20T08:45:24;13.88;;;6.85;;
48596;SDS011;34382;43.160;24.148;2023-12-20T08:46:56;13.60;;;6.80;;
48596;SDS011;34382;43.160;24.148;2023-12-20T08:48:29;13.15;;;6.65;;
48596;SDS011;34382;43.160;24.148;2023-12-20T08:50:05;14.52;;;7.18;;
48596;SDS011;34382;43.160;24.148;2023-12-20T08:51:38;12.85;;;6.40;;
48596;SDS011;34382;43.160;24.148;2023-12-20T08:53:13;12.50;;;6.43;;
48596;SDS011;34382;43.160;24.148;2023-12-20T08:54:45;21.58;;;7.60;;
48596;SDS011;34382;43.160;24.148;2023-12-20T08:56:18;18.45;;;8.02;;
48596;SDS011;34382;43.160;24.148;2023-12-20T08:57:50;12.88;;;4.90;;
48596;SDS011;34382;43.160;24.148;2023-12-20T08:59:22;16.25;;;5.55;;
48596;SDS011;34382;43.160;24.148;2023-12-20T09:00:55;14.77;;;5.32;;
48596;SDS011;34382;43.160;24.148;2023-12-20T09:02:27;16.38;;;5.75;;
48596;SDS011;34382;43.160;24.148;2023-12-20T09:05:33;10.02;;;4.82;;
48596;SDS011;34382;43.160;24.148;2023-12-20T09:07:05;9.13;;;4.18;;
48596;SDS011;34382;43.160;24.148;2023-12-20T09:08:37;10.48;;;4.20;;
48596;SDS011;34382;43.160;24.148;2023-12-20T09:10:10;12.75;;;5.38;;
48596;SDS011;34382;43.160;24.148;2023-12-20T09:11:47;9.85;;;4.00;;
48596;SDS011;34382;43.160;24.148;2023-12-20T09:13:21;39.72;;;10.10;;
48596;SDS011;34382;43.160;24.148;2023-12-20T09:14:59;23.00;;;8.68;;
48596;SDS011;34382;43.160;24.148;2023-12-20T09:16:34;50.90;;;13.52;;
48596;SDS011;34382;43.160;24.148;2023-12-20T09:18:07;36.58;;;13.57;;
48596;SDS011;34382;43.160;24.148;2023-12-20T09:19:39;26.20;;;15.05;;
48596;SDS011;34382;43.160;24.148;2023-12-20T09:21:12;33.70;;;19.23;;
48596;SDS011;34382;43.160;24.148;2023-12-20T09:22:44;26.48;;;13.25;;
48596;SDS011;34382;43.160;24.148;2023-12-20T09:24:16;38.00;;;15.95;;
48596;SDS011;34382;43.160;24.148;2023-12-20T09:25:48;28.23;;;13.68;;
48596;SDS011;34382;43.160;24.148;2023-12-20T09:27:20;21.02;;;9.85;;
48596;SDS011;34382;43.160;24.148;2023-12-20T09:28:53;27.00;;;12.85;;
48596;SDS011;34382;43.160;24.148;2023-12-20T09:30:25;20.83;;;10.15;;
48596;SDS011;34382;43.160;24.148;2023-12-20T09:31:58;28.15;;;11.38;;
48596;SDS011;34382;43.160;24.148;2023-12-20T09:33:31;16.95;;;8.77;;
48596;SDS011;34382;43.160;24.148;2023-12-20T09:35:03;15.27;;;6.00;;
48596;SDS011;34382;43.160;24.148;2023-12-20T09:36:38;8.55;;;3.65;;
48596;SDS011;34382;43.160;24.148;2023-12-20T09:38:14;9.30;;;3.67;;
48596;SDS011;34382;43.160;24.148;2023-12-20T09:41:19;10.35;;;4.00;;
48596;SDS011;34382;43.160;24.148;2023-12-20T09:42:58;10.65;;;4.10;;
48596;SDS011;34382;43.160;24.148;2023-12-20T09:44:41;16.48;;;5.25;;
48596;SDS011;34382;43.160;24.148;2023-12-20T09:46:18;12.10;;;4.65;;
48596;SDS011;34382;43.160;24.148;2023-12-20T09:47:53;12.23;;;4.63;;
48596;SDS011;34382;43.160;24.148;2023-12-20T09:49:29;11.38;;;4.07;;
48596;SDS011;34382;43.160;24.148;2023-12-20T09:51:02;14.10;;;4.25;;
48596;SDS011;34382;43.160;24.148;2023-12-20T09:52:36;11.70;;;4.45;;
48596;SDS011;34382;43.160;24.148;2023-12-20T09:55:41;11.63;;;4.30;;
48596;SDS011;34382;43.160;24.148;2023-12-20T09:57:14;9.40;;;3.60;;
48596;SDS011;34382;43.160;24.148;2023-12-20T09:58:46;11.43;;;4.82;;
48596;SDS011;34382;43.160;24.148;2023-12-20T10:03:44;8.88;;;4.20;;
48596;SDS011;34382;43.160;24.148;2023-12-20T10:05:17;13.73;;;5.50;;
48596;SDS011;34382;43.160;24.148;2023-12-20T10:06:52;10.98;;;4.55;;
48596;SDS011;34382;43.160;24.148;2023-12-20T10:08:25;14.95;;;5.40;;
48596;SDS011;34382;43.160;24.148;2023-12-20T10:10:00;18.23;;;6.28;;
48596;SDS011;34382;43.160;24.148;2023-12-20T10:11:37;12.70;;;5.28;;
48596;SDS011;34382;43.160;24.148;2023-12-20T10:13:10;9.93;;;4.70;;
48596;SDS011;34382;43.160;24.148;2023-12-20T10:14:44;13.75;;;5.95;;
48596;SDS011;34382;43.160;24.148;2023-12-20T10:16:16;9.85;;;5.00;;
48596;SDS011;34382;43.160;24.148;2023-12-20T10:17:50;13.40;;;6.07;;
48596;SDS011;34382;43.160;24.148;2023-12-20T10:19:25;14.40;;;6.45;;
48596;SDS011;34382;43.160;24.148;2023-12-20T10:20:57;16.10;;;6.75;;
48596;SDS011;34382;43.160;24.148;2023-12-20T10:22:29;12.10;;;5.90;;
48596;SDS011;34382;43.160;24.148;2023-12-20T10:24:02;13.88;;;5.70;;
48596;SDS011;34382;43.160;24.148;2023-12-20T10:25:35;16.47;;;6.47;;
48596;SDS011;34382;43.160;24.148;2023-12-20T10:27:08;19.45;;;6.40;;
48596;SDS011;34382;43.160;24.148;2023-12-20T10:28:40;11.05;;;5.10;;
48596;SDS011;34382;43.160;24.148;2023-12-20T10:30:13;12.60;;;6.50;;
48596;SDS011;34382;43.160;24.148;2023-12-20T10:31:46;16.05;;;5.38;;
48596;SDS011;34382;43.160;24.148;2023-12-20T10:33:24;10.93;;;5.45;;
48596;SDS011;34382;43.160;24.148;2023-12-20T10:35:04;13.95;;;6.13;;
48596;SDS011;34382;43.160;24.148;2023-12-20T10:36:37;12.50;;;5.78;;
48596;SDS011;34382;43.160;24.148;2023-12-20T10:38:10;22.55;;;8.43;;
48596;SDS011;34382;43.160;24.148;2023-12-20T10:39:42;17.05;;;7.05;;
48596;SDS011;34382;43.160;24.148;2023-12-20T10:41:15;11.77;;;5.88;;
48596;SDS011;34382;43.160;24.148;2023-12-20T10:42:50;16.40;;;7.05;;
48596;SDS011;34382;43.160;24.148;2023-12-20T10:44:23;12.00;;;6.87;;
48596;SDS011;34382;43.160;24.148;2023-12-20T10:45:56;16.98;;;6.53;;
48596;SDS011;34382;43.160;24.148;2023-12-20T10:47:31;17.15;;;7.03;;
48596;SDS011;34382;43.160;24.148;2023-12-20T10:49:04;13.85;;;6.35;;
48596;SDS011;34382;43.160;24.148;2023-12-20T10:50:37;17.13;;;8.98;;
48596;SDS011;34382;43.160;24.148;2023-12-20T10:52:13;18.60;;;7.38;;
48596;SDS011;34382;43.160;24.148;2023-12-20T10:53:46;17.50;;;8.25;;
48596;SDS011;34382;43.160;24.148;2023-12-20T10:55:22;18.33;;;7.90;;
48596;SDS011;34382;43.160;24.148;2023-12-20T10:56:55;13.90;;;7.70;;
48596;SDS011;34382;43.160;24.148;2023-12-20T10:58:30;17.70;;;8.90;;
48596;SDS011;34382;43.160;24.148;2023-12-20T11:00:06;28.33;;;11.75;;
48596;SDS011;34382;43.160;24.148;2023-12-20T11:01:41;22.70;;;12.57;;
48596;SDS011;34382;43.160;24.148;2023-12-20T11:03:14;17.27;;;10.38;;
48596;SDS011;34382;43.160;24.148;2023-12-20T11:04:53;20.98;;;10.25;;
48596;SDS011;34382;43.160;24.148;2023-12-20T11:06:49;16.05;;;8.30;;
48596;SDS011;34382;43.160;24.148;2023-12-20T11:12:02;21.02;;;12.52;;
48596;SDS011;34382;43.160;24.148;2023-12-20T11:13:52;22.15;;;13.32;;
48596;SDS011;34382;43.160;24.148;2023-12-20T11:15:27;16.55;;;10.00;;
48596;SDS011;34382;43.160;24.148;2023-12-20T11:17:07;24.73;;;14.63;;
48596;SDS011;34382;43.160;24.148;2023-12-20T11:18:47;16.70;;;10.02;;